Time;durP1;ratioP1;P1;durP2;ratioP2;P2;SDS_P1;SDS_P2;PMS_P1;PMS_P2;Temp;Humidity;BMP_temperature;BMP_pressure;BME280_temperature;BME280_humidity;BME280_pressure;Samples;Min_cycle;Max_cycle;Signal;HPM_P1;HPM_P2
2022/08/13 00:00:52;;;;;;;0.95;0.90;;;16.00;99.90;;;;;;4956282;28;20198;-78
2022/08/13 00:03:23;;;;;;;0.80;0.80;;;16.00;99.90;;;;;;4955317;28;20196;-80
2022/08/13 00:05:54;;;;;;;0.95;0.85;;;16.10;99.90;;;;;;4954240;28;20282;-79
2022/08/13 00:08:27;;;;;;;1.15;0.80;;;16.10;99.90;;;;;;4955959;28;20203;-80
2022/08/13 00:10:59;;;;;;;1.17;0.80;;;16.10;99.90;;;;;;4955612;28;20230;-79
2022/08/13 00:13:29;;;;;;;0.90;0.90;;;16.10;99.90;;;;;;4959233;28;20223;-80
2022/08/13 00:16:02;;;;;;;2.15;1.52;;;16.10;99.90;;;;;;4963468;28;20227;-80
2022/08/13 00:18:36;;;;;;;1.33;1.10;;;16.10;99.90;;;;;;4963938;28;20671;-80
2022/08/13 00:21:07;;;;;;;0.80;0.75;;;16.20;99.90;;;;;;4962794;28;20227;-80
2022/08/13 00:23:38;;;;;;;0.85;0.77;;;16.20;99.90;;;;;;4964807;28;20277;-80
2022/08/13 00:26:09;;;;;;;1.75;0.70;;;16.20;99.90;;;;;;4966438;28;20588;-80
2022/08/13 00:28:39;;;;;;;0.77;0.70;;;16.20;99.90;;;;;;4966994;28;20239;-80
2022/08/13 00:31:12;;;;;;;0.77;0.77;;;16.20;99.90;;;;;;4967255;28;20574;-80
2022/08/13 00:33:43;;;;;;;2.25;0.85;;;16.20;99.90;;;;;;4966515;28;20200;-80
2022/08/13 00:36:14;;;;;;;0.70;0.70;;;16.20;99.90;;;;;;4966509;28;20254;-80
2022/08/13 00:38:45;;;;;;;0.90;0.75;;;16.20;99.90;;;;;;4965661;28;20582;-80
2022/08/13 00:41:37;;;;;;;0.85;0.68;;;16.20;99.90;;;;;;4965734;28;20206;-80
2022/08/13 00:44:09;;;;;;;0.40;0.40;;;16.30;99.90;;;;;;4966958;28;20873;-79
2022/08/13 00:46:42;;;;;;;0.50;0.50;;;16.30;99.90;;;;;;4966142;28;20666;-79
2022/08/13 00:49:13;;;;;;;0.30;0.30;;;16.30;99.90;;;;;;4967267;28;20556;-79
2022/08/13 00:51:44;;;;;;;2.60;0.95;;;16.30;99.90;;;;;;4965998;28;20199;-80
2022/08/13 00:54:19;;;;;;;0.98;0.55;;;16.40;99.90;;;;;;4967533;28;20250;-79
2022/08/13 00:56:57;;;;;;;0.75;0.40;;;16.30;99.90;;;;;;4964761;28;20227;-79
2022/08/13 00:59:28;;;;;;;0.50;0.50;;;16.30;99.90;;;;;;4967539;28;20667;-81
2022/08/13 01:02:01;;;;;;;0.60;0.60;;;16.40;99.90;;;;;;4964531;28;20195;-79
2022/08/13 01:04:32;;;;;;;0.80;0.68;;;16.60;99.90;;;;;;4966539;28;20215;-79
2022/08/13 01:07:04;;;;;;;0.60;0.50;;;16.60;99.90;;;;;;4964967;28;20207;-79
2022/08/13 01:09:35;;;;;;;0.70;0.57;;;16.60;99.90;;;;;;4965381;28;20334;-79
2022/08/13 01:12:09;;;;;;;0.30;0.30;;;16.70;99.90;;;;;;4965193;28;20213;-80
2022/08/13 01:14:41;;;;;;;0.60;0.40;;;16.80;99.90;;;;;;4966400;28;20703;-79
2022/08/13 01:17:15;;;;;;;0.90;0.43;;;17.00;99.90;;;;;;4966719;28;20241;-80
2022/08/13 01:19:46;;;;;;;0.30;0.30;;;17.10;99.90;;;;;;4965427;28;20210;-79
2022/08/13 01:22:19;;;;;;;0.75;0.40;;;17.30;99.90;;;;;;4966651;28;20208;-80
2022/08/13 01:24:50;;;;;;;0.30;0.30;;;17.30;99.90;;;;;;4966034;28;20213;-80
2022/08/13 01:27:23;;;;;;;0.50;0.22;;;17.40;99.90;;;;;;4964842;28;20226;-80
2022/08/13 01:29:54;;;;;;;1.02;0.30;;;17.50;99.90;;;;;;4966436;28;20229;-80
2022/08/13 01:32:27;;;;;;;1.85;0.30;;;17.50;99.90;;;;;;4966772;28;20203;-79
2022/08/13 01:35:00;;;;;;;0.40;0.30;;;17.60;99.90;;;;;;4964794;28;20314;-79
2022/08/13 01:37:33;;;;;;;2.53;0.43;;;17.40;99.90;;;;;;4965102;28;20227;-80
2022/08/13 01:40:06;;;;;;;0.30;0.30;;;17.50;99.90;;;;;;4965072;28;20203;-79
2022/08/13 01:42:42;;;;;;;0.90;0.30;;;17.50;99.90;;;;;;4964771;28;20266;-80
2022/08/13 01:45:14;;;;;;;1.80;0.30;;;17.70;99.90;;;;;;4966220;28;20198;-80
2022/08/13 01:50:33;;;;;;;0.30;0.30;;;17.80;99.90;;;;;;4964131;28;20206;-79
2022/08/13 01:53:08;;;;;;;0.30;0.30;;;17.70;99.90;;;;;;4965931;28;20605;-80
2022/08/13 01:55:40;;;;;;;0.57;0.50;;;17.80;99.90;;;;;;4965545;28;20211;-79
2022/08/13 01:58:13;;;;;;;0.77;0.40;;;18.00;99.90;;;;;;4963402;28;20242;-79
2022/08/13 02:00:46;;;;;;;0.40;0.40;;;18.20;99.90;;;;;;4966185;28;20203;-80
2022/08/13 02:03:19;;;;;;;0.63;0.30;;;18.40;99.90;;;;;;4964707;28;20206;-80
2022/08/13 02:05:51;;;;;;;0.43;0.40;;;18.50;99.90;;;;;;4962942;28;20203;-79
2022/08/13 02:08:26;;;;;;;0.60;0.45;;;18.50;99.90;;;;;;4963947;28;20218;-79
2022/08/13 02:10:58;;;;;;;0.35;0.35;;;18.50;99.90;;;;;;4963654;28;20241;-80
2022/08/13 02:13:29;;;;;;;1.02;0.80;;;18.40;99.90;;;;;;4966034;28;20273;-79
2022/08/13 02:16:00;;;;;;;1.33;0.63;;;18.20;99.90;;;;;;4965422;28;20226;-79
2022/08/13 02:18:31;;;;;;;1.05;0.45;;;18.10;99.90;;;;;;4965660;28;20227;-79
2022/08/13 02:21:04;;;;;;;0.60;0.60;;;18.00;99.90;;;;;;4963812;28;20211;-79
2022/08/13 02:23:37;;;;;;;0.50;0.50;;;18.10;99.90;;;;;;4964620;28;20627;-79
2022/08/13 02:26:08;;;;;;;0.40;0.40;;;18.10;99.90;;;;;;4961349;28;20192;-80
2022/08/13 02:28:39;;;;;;;0.77;0.60;;;18.40;99.90;;;;;;4967290;28;20211;-80
2022/08/13 02:31:12;;;;;;;1.02;0.40;;;18.50;99.90;;;;;;4966959;28;20217;-79
2022/08/13 02:33:43;;;;;;;0.40;0.40;;;18.70;99.90;;;;;;4964098;28;20301;-80
2022/08/13 02:36:14;;;;;;;0.45;0.40;;;18.70;99.90;;;;;;4963684;28;20195;-80
2022/08/13 02:38:48;;;;;;;3.13;0.50;;;18.60;99.90;;;;;;4962371;28;20286;-79
2022/08/13 02:44:07;;;;;;;0.85;0.55;;;18.40;99.90;;;;;;4964200;28;20249;-80
2022/08/13 02:46:38;;;;;;;0.30;0.30;;;18.50;99.90;;;;;;4964695;28;20203;-79
2022/08/13 02:49:09;;;;;;;0.45;0.40;;;18.50;99.90;;;;;;4964369;28;20210;-80
2022/08/13 02:51:42;;;;;;;1.55;0.30;;;18.50;99.90;;;;;;4964786;28;20758;-81
2022/08/13 02:54:16;;;;;;;0.30;0.30;;;18.60;99.90;;;;;;4964868;28;20203;-80
2022/08/13 02:56:48;;;;;;;1.17;0.30;;;18.70;99.90;;;;;;4961407;28;20218;-81
2022/08/13 02:59:19;;;;;;;0.35;0.35;;;18.80;99.90;;;;;;4964215;28;20445;-81
2022/08/13 03:01:51;;;;;;;1.85;0.60;;;18.80;99.90;;;;;;4965292;28;20225;-80
2022/08/13 03:04:21;;;;;;;0.60;0.50;;;18.80;99.90;;;;;;4964597;28;20211;-81
2022/08/13 03:06:53;;;;;;;0.20;0.20;;;18.80;99.90;;;;;;4965507;28;20207;-80
2022/08/13 03:09:27;;;;;;;0.30;0.30;;;18.60;99.90;;;;;;4965951;28;20207;-80
2022/08/13 03:12:02;;;;;;;2.30;0.50;;;18.40;99.90;;;;;;4967608;28;20218;-79
2022/08/13 03:14:36;;;;;;;0.32;0.30;;;18.30;99.90;;;;;;4976580;28;20194;-79
2022/08/13 03:17:07;;;;;;;0.60;0.32;;;18.30;99.90;;;;;;4974226;28;20232;-79
2022/08/13 03:19:38;;;;;;;0.40;0.30;;;18.20;99.90;;;;;;4971591;28;20212;-79
2022/08/13 03:22:09;;;;;;;0.40;0.40;;;18.10;99.90;;;;;;4969273;28;20666;-79
2022/08/13 03:24:42;;;;;;;3.15;0.65;;;18.10;99.90;;;;;;4973123;28;20217;-79
2022/08/13 03:27:13;;;;;;;0.45;0.45;;;18.00;99.90;;;;;;4976191;28;20654;-79
2022/08/13 03:29:43;;;;;;;0.40;0.40;;;17.90;99.90;;;;;;4974239;28;20265;-80
2022/08/13 03:32:15;;;;;;;0.60;0.40;;;18.00;99.90;;;;;;4972594;28;20585;-79
2022/08/13 03:34:47;;;;;;;0.73;0.40;;;18.00;99.90;;;;;;4977718;28;20299;-79
2022/08/13 03:37:17;;;;;;;1.17;0.60;;;17.90;99.90;;;;;;4982467;28;20223;-80
2022/08/13 03:39:50;;;;;;;0.40;0.40;;;17.90;99.90;;;;;;4973655;28;20210;-81
2022/08/13 03:42:21;;;;;;;0.50;0.40;;;17.90;99.90;;;;;;4973772;28;20200;-78
2022/08/13 03:44:52;;;;;;;0.40;0.40;;;17.90;99.90;;;;;;4976595;28;20602;-78
2022/08/13 03:47:23;;;;;;;0.35;0.35;;;17.90;99.90;;;;;;4962386;28;20206;-78
2022/08/13 03:49:54;;;;;;;0.30;0.30;;;18.00;99.90;;;;;;4968320;28;20221;-78
2022/08/13 03:52:25;;;;;;;0.95;0.30;;;18.00;99.90;;;;;;4967909;28;20290;-78
2022/08/13 03:54:57;;;;;;;0.20;0.20;;;18.30;99.90;;;;;;4977918;28;20258;-77
2022/08/13 03:57:28;;;;;;;0.65;0.20;;;18.40;99.90;;;;;;4970595;28;20733;-77
2022/08/13 03:59:59;;;;;;;0.20;0.20;;;18.50;99.90;;;;;;4974963;28;20700;-78
2022/08/13 04:02:30;;;;;;;0.28;0.28;;;18.60;99.90;;;;;;4976034;28;20199;-78
2022/08/13 04:05:01;;;;;;;0.40;0.40;;;18.70;99.90;;;;;;4980603;28;20214;-78
2022/08/13 04:07:31;;;;;;;0.80;0.45;;;18.80;99.90;;;;;;4975370;28;20216;-78
2022/08/13 04:10:06;;;;;;;0.20;0.20;;;18.80;99.90;;;;;;4971703;28;20235;-77
2022/08/13 04:12:38;;;;;;;0.15;0.15;;;18.80;99.90;;;;;;4974900;28;20225;-77
2022/08/13 04:15:09;;;;;;;2.60;0.40;;;18.90;99.90;;;;;;4977625;28;20199;-78
2022/08/13 04:17:40;;;;;;;0.98;0.50;;;19.00;99.90;;;;;;4977271;28;20766;-77
2022/08/13 04:20:13;;;;;;;0.55;0.45;;;19.10;99.90;;;;;;4971976;28;20685;-77
2022/08/13 04:22:44;;;;;;;0.93;0.22;;;19.20;99.90;;;;;;4985095;28;20230;-77
2022/08/13 04:25:16;;;;;;;0.20;0.20;;;19.20;99.90;;;;;;4968926;28;20286;-77
2022/08/13 04:27:51;;;;;;;0.57;0.20;;;19.30;99.90;;;;;;4979184;28;20752;-77
2022/08/13 04:30:22;;;;;;;0.40;0.30;;;19.30;99.90;;;;;;4974449;28;20195;-77
2022/08/13 04:32:52;;;;;;;1.65;0.20;;;19.30;99.90;;;;;;4974320;28;20203;-78
2022/08/13 04:35:23;;;;;;;0.40;0.38;;;19.30;99.90;;;;;;4976886;28;20205;-79
2022/08/13 04:37:57;;;;;;;0.20;0.20;;;19.20;99.90;;;;;;4974447;28;20235;-78
2022/08/13 04:40:29;;;;;;;0.60;0.30;;;19.30;99.90;;;;;;4971359;28;20671;-78
2022/08/13 04:43:00;;;;;;;1.85;0.40;;;19.30;99.90;;;;;;4971855;28;20199;-77
2022/08/13 04:45:32;;;;;;;0.28;0.28;;;19.30;99.90;;;;;;4976293;28;20231;-77
2022/08/13 04:48:07;;;;;;;0.30;0.30;;;19.20;99.90;;;;;;4979429;28;20222;-79
2022/08/13 04:50:39;;;;;;;1.67;0.30;;;19.30;99.90;;;;;;4970721;28;20613;-79
2022/08/13 04:53:12;;;;;;;0.22;0.20;;;19.30;99.90;;;;;;4984616;28;20205;-79
2022/08/13 04:55:44;;;;;;;0.30;0.30;;;19.40;99.90;;;;;;4975100;28;20214;-78
2022/08/13 04:58:15;;;;;;;0.30;0.10;;;19.40;99.90;;;;;;4976714;28;20273;-79
2022/08/13 05:00:46;;;;;;;0.35;0.20;;;19.30;99.90;;;;;;4976962;28;20198;-78
2022/08/13 05:03:18;;;;;;;0.30;0.30;;;19.30;99.90;;;;;;4979722;28;20249;-79
2022/08/13 05:05:51;;;;;;;0.30;0.30;;;19.30;99.90;;;;;;4978083;28;20199;-79
2022/08/13 05:08:22;;;;;;;0.32;0.32;;;19.30;99.90;;;;;;4973536;28;20290;-79
2022/08/13 05:10:55;;;;;;;1.52;0.30;;;19.30;99.90;;;;;;4980687;28;20272;-80
2022/08/13 05:13:27;;;;;;;0.40;0.30;;;19.20;99.90;;;;;;4974646;28;20207;-79
2022/08/13 05:16:01;;;;;;;0.30;0.30;;;19.10;99.90;;;;;;4983136;28;20204;-80
2022/08/13 05:18:34;;;;;;;0.20;0.20;;;19.10;99.90;;;;;;4978188;28;20627;-80
2022/08/13 05:21:08;;;;;;;0.30;0.30;;;19.10;99.90;;;;;;4975860;28;20662;-80
2022/08/13 05:23:40;;;;;;;0.38;0.38;;;19.00;99.90;;;;;;4977976;28;20305;-80
2022/08/13 05:26:13;;;;;;;0.30;0.30;;;18.90;99.90;;;;;;4972390;28;20205;-80
2022/08/13 05:28:44;;;;;;;0.75;0.30;;;18.80;99.90;;;;;;4969578;28;20211;-79
2022/08/13 05:31:17;;;;;;;0.50;0.30;;;18.80;99.90;;;;;;4971221;28;20206;-79
2022/08/13 05:33:48;;;;;;;0.52;0.20;;;18.70;99.90;;;;;;4983483;28;20666;-80
2022/08/13 05:36:21;;;;;;;0.30;0.30;;;18.70;99.90;;;;;;4981707;28;20262;-80
2022/08/13 05:38:52;;;;;;;1.90;0.30;;;18.70;99.90;;;;;;4977665;28;20599;-80
2022/08/13 05:41:25;;;;;;;0.98;0.45;;;18.60;99.90;;;;;;4982080;28;20214;-79
2022/08/13 05:43:56;;;;;;;0.30;0.30;;;18.50;99.90;;;;;;4983091;28;20202;-79
2022/08/13 05:46:31;;;;;;;0.40;0.40;;;18.50;99.90;;;;;;4970387;28;20209;-79
2022/08/13 05:49:01;;;;;;;0.22;0.22;;;18.50;99.90;;;;;;4977738;28;20244;-79
2022/08/13 05:51:33;;;;;;;0.65;0.40;;;18.50;99.90;;;;;;4977858;28;20203;-79
2022/08/13 05:54:07;;;;;;;0.20;0.20;;;18.60;99.90;;;;;;4975459;28;20666;-79
2022/08/13 05:56:40;;;;;;;0.35;0.28;;;18.70;99.90;;;;;;4969272;28;20556;-79
2022/08/13 06:03:22;;;;;;;0.73;0.30;;;18.80;99.90;;;;;;4977976;28;20817;-79
2022/08/13 06:04:48;;;;;;;0.73;0.50;;;18.90;99.90;;;;;;4968097;28;20210;-79
2022/08/13 06:07:20;;;;;;;1.65;0.70;;;19.00;99.90;;;;;;4982557;28;20210;-78
2022/08/13 06:09:51;;;;;;;0.95;0.40;;;19.10;99.90;;;;;;4973099;28;20292;-78
2022/08/13 06:12:24;;;;;;;0.88;0.40;;;19.20;99.90;;;;;;4972372;28;20203;-79
2022/08/13 06:14:58;;;;;;;0.52;0.40;;;19.20;99.90;;;;;;4971619;28;20246;-78
2022/08/13 06:17:29;;;;;;;0.60;0.60;;;19.20;99.90;;;;;;4970815;28;20905;-78
2022/08/13 06:20:03;;;;;;;0.68;0.50;;;19.20;99.90;;;;;;4972820;28;20203;-79
2022/08/13 06:22:36;;;;;;;1.40;0.50;;;19.30;99.90;;;;;;4976648;28;20207;-78
2022/08/13 06:25:08;;;;;;;1.65;0.50;;;19.20;99.90;;;;;;4968591;28;20202;-79
2022/08/13 06:27:41;;;;;;;1.00;0.73;;;19.30;99.90;;;;;;4973740;28;20564;-79
2022/08/13 06:30:14;;;;;;;0.93;0.40;;;19.20;99.90;;;;;;4981769;28;20206;-78
2022/08/13 06:32:46;;;;;;;0.88;0.50;;;19.30;99.90;;;;;;4967887;28;20286;-78
2022/08/13 06:35:17;;;;;;;3.22;0.50;;;19.40;99.90;;;;;;4967451;28;20591;-78
2022/08/13 06:37:48;;;;;;;0.82;0.75;;;19.40;99.90;;;;;;4968399;28;20222;-79
2022/08/13 06:40:22;;;;;;;1.90;0.80;;;19.40;99.90;;;;;;4974205;28;20208;-79
2022/08/13 06:42:55;;;;;;;1.27;0.57;;;19.40;99.90;;;;;;4976906;28;20202;-79
2022/08/13 06:45:27;;;;;;;1.23;0.70;;;19.40;99.90;;;;;;4970732;28;20296;-79
2022/08/13 06:47:59;;;;;;;1.38;0.70;;;19.30;99.90;;;;;;4970314;28;20780;-79
2022/08/13 06:50:33;;;;;;;1.17;0.70;;;19.20;99.90;;;;;;4973940;28;20203;-79
2022/08/13 06:53:06;;;;;;;1.15;0.75;;;19.10;99.90;;;;;;4973666;28;20241;-79
2022/08/13 06:55:38;;;;;;;2.58;0.75;;;19.00;99.90;;;;;;4967870;28;20195;-78
2022/08/13 06:58:13;;;;;;;0.60;0.60;;;18.90;99.90;;;;;;4973414;28;20725;-78
2022/08/13 07:00:44;;;;;;;0.40;0.40;;;18.90;99.90;;;;;;4973268;28;20199;-80
2022/08/13 07:03:16;;;;;;;1.13;0.50;;;18.80;99.90;;;;;;4973815;28;20285;-79
2022/08/13 07:05:48;;;;;;;1.38;0.50;;;18.70;99.90;;;;;;4976484;28;20214;-79
2022/08/13 07:08:19;;;;;;;1.13;0.50;;;18.50;99.90;;;;;;4970404;28;20578;-79
2022/08/13 07:11:21;;;;;;;0.77;0.47;;;18.40;99.90;;;;;;4967758;28;20696;-79
2022/08/13 07:13:47;;;;;;;1.80;0.77;;;18.30;99.90;;;;;;4972896;28;20645;-79
2022/08/13 07:16:19;;;;;;;1.33;0.70;;;18.20;99.90;;;;;;4976435;28;20209;-78
2022/08/13 07:18:50;;;;;;;2.78;0.70;;;18.10;99.90;;;;;;4973254;28;20516;-79
2022/08/13 07:21:24;;;;;;;1.00;0.90;;;18.00;99.90;;;;;;4978417;28;20343;-78
2022/08/13 07:23:55;;;;;;;0.55;0.47;;;17.90;99.90;;;;;;4976702;28;20203;-78
2022/08/13 07:26:30;;;;;;;1.88;0.70;;;17.90;99.90;;;;;;4967163;28;20662;-79
2022/08/13 07:29:04;;;;;;;2.85;1.60;;;17.80;99.90;;;;;;4969350;28;20202;-78
2022/08/13 07:31:39;;;;;;;2.67;0.88;;;17.70;99.90;;;;;;4973814;28;21123;-78
2022/08/13 07:34:11;;;;;;;0.60;0.50;;;17.70;99.90;;;;;;4978039;28;20198;-78
2022/08/13 07:36:43;;;;;;;1.48;0.90;;;17.70;99.90;;;;;;4979865;28;20661;-79
2022/08/13 07:39:16;;;;;;;1.30;0.80;;;17.60;99.90;;;;;;4972132;28;20227;-80
2022/08/13 07:41:48;;;;;;;3.13;0.80;;;17.50;99.90;;;;;;4970791;28;20753;-79
2022/08/13 07:44:23;;;;;;;1.58;0.95;;;17.50;99.90;;;;;;4967477;28;20206;-79
2022/08/13 07:46:55;;;;;;;3.70;1.70;;;17.50;99.90;;;;;;4977912;28;20689;-79
2022/08/13 07:49:26;;;;;;;2.05;1.38;;;17.40;99.90;;;;;;4973425;28;20199;-80
2022/08/13 07:51:58;;;;;;;1.95;1.40;;;17.40;99.90;;;;;;4980355;28;20235;-79
2022/08/13 07:54:29;;;;;;;1.27;0.93;;;17.30;99.90;;;;;;4964755;28;20215;-79
2022/08/13 07:57:02;;;;;;;2.85;1.40;;;17.30;99.90;;;;;;4969551;28;20215;-81
2022/08/13 07:59:36;;;;;;;1.80;0.98;;;17.30;99.90;;;;;;4964702;28;20235;-80
2022/08/13 08:02:08;;;;;;;1.73;0.98;;;17.20;99.90;;;;;;4973673;28;20247;-82
2022/08/13 08:04:41;;;;;;;1.80;1.20;;;17.30;99.90;;;;;;4972885;28;20209;-82
2022/08/13 08:07:12;;;;;;;2.97;1.30;;;17.20;99.90;;;;;;4983853;28;20199;-82
2022/08/13 08:09:43;;;;;;;7.82;3.92;;;17.10;99.90;;;;;;4973758;28;20265;-77
2022/08/13 08:15:02;;;;;;;3.30;1.67;;;17.10;99.90;;;;;;4974417;28;20345;-78
2022/08/13 08:17:33;;;;;;;2.30;1.63;;;17.10;99.90;;;;;;4970969;28;20200;-80
2022/08/13 08:20:04;;;;;;;1.98;1.50;;;17.10;99.90;;;;;;4967528;28;20811;-81
2022/08/13 08:22:35;;;;;;;2.53;1.80;;;17.00;99.90;;;;;;4969849;28;20238;-81
2022/08/13 08:25:07;;;;;;;4.72;3.10;;;17.00;99.90;;;;;;4972366;28;20206;-81
2022/08/13 08:27:38;;;;;;;5.57;4.28;;;16.90;99.90;;;;;;4973085;28;20203;-80
2022/08/13 08:30:13;;;;;;;5.13;3.05;;;16.90;99.90;;;;;;4968427;28;20222;-80
2022/08/13 08:32:45;;;;;;;5.05;3.60;;;16.90;99.90;;;;;;4966668;28;20198;-80
2022/08/13 08:35:17;;;;;;;5.35;3.30;;;16.90;99.90;;;;;;4965195;28;20218;-81
2022/08/13 08:43:34;;;;;;;4.28;1.95;;;16.80;99.90;;;;;;4975047;28;20247;-80
2022/08/13 08:46:08;;;;;;;3.67;2.10;;;16.80;99.90;;;;;;4977014;28;20651;-81
2022/08/13 08:48:41;;;;;;;4.55;2.35;;;16.70;99.90;;;;;;4966742;28;20639;-80
2022/08/13 08:51:12;;;;;;;4.60;1.90;;;16.70;99.90;;;;;;4971512;28;20658;-81
2022/08/13 08:53:46;;;;;;;2.38;1.27;;;16.70;99.90;;;;;;4968565;28;20215;-80
2022/08/13 08:56:20;;;;;;;1.95;1.20;;;16.70;99.90;;;;;;4973547;28;20249;-80
2022/08/13 08:58:54;;;;;;;2.78;1.08;;;16.60;99.90;;;;;;4964270;28;20288;-80
2022/08/13 09:01:27;;;;;;;1.45;1.10;;;16.60;99.90;;;;;;4968001;28;20201;-80
2022/08/13 09:03:58;;;;;;;1.25;1.00;;;16.60;99.90;;;;;;4967298;28;20818;-80
2022/08/13 09:06:31;;;;;;;1.70;1.30;;;16.60;99.90;;;;;;4970277;28;20244;-80
2022/08/13 09:09:03;;;;;;;2.72;1.30;;;16.50;99.90;;;;;;4970550;28;20218;-82
2022/08/13 09:11:35;;;;;;;3.42;1.60;;;16.50;99.90;;;;;;4945890;28;20206;-80
2022/08/13 09:14:08;;;;;;;2.35;1.75;;;16.50;99.90;;;;;;4945923;28;20676;-83
2022/08/13 09:16:41;;;;;;;2.78;1.73;;;16.40;99.90;;;;;;4945267;28;20794;-80
2022/08/13 09:19:13;;;;;;;2.53;1.60;;;16.50;99.90;;;;;;4947109;29;20593;-80
2022/08/13 09:21:46;;;;;;;1.95;1.42;;;16.40;99.90;;;;;;4945828;28;20215;-80
2022/08/13 09:24:21;;;;;;;1.90;1.30;;;16.30;99.90;;;;;;4946616;28;20191;-78
2022/08/13 09:26:53;;;;;;;2.15;1.20;;;16.30;99.90;;;;;;4943157;28;20550;-78
2022/08/13 09:29:24;;;;;;;2.83;1.58;;;16.20;99.90;;;;;;4943584;29;20211;-79
2022/08/13 09:31:58;;;;;;;2.10;1.40;;;16.20;99.90;;;;;;4943943;28;20207;-79
2022/08/13 09:34:30;;;;;;;2.17;1.30;;;16.20;99.90;;;;;;4942668;28;20743;-78
2022/08/13 09:37:02;;;;;;;1.75;1.23;;;16.20;99.90;;;;;;4945232;28;20215;-82
2022/08/13 09:39:38;;;;;;;1.35;1.05;;;16.20;99.90;;;;;;4945113;28;20714;-81
2022/08/13 09:42:16;;;;;;;2.17;1.20;;;16.20;99.90;;;;;;4941806;28;20207;-81
2022/08/13 09:44:50;;;;;;;1.60;1.10;;;16.10;99.90;;;;;;4945327;28;20200;-80
2022/08/13 09:47:23;;;;;;;1.90;1.20;;;16.10;99.90;;;;;;4945814;29;20667;-80
2022/08/13 09:49:55;;;;;;;1.52;1.08;;;16.10;99.90;;;;;;4945081;28;20200;-80
2022/08/13 09:52:26;;;;;;;1.52;1.00;;;16.10;99.90;;;;;;4946397;28;20264;-80
2022/08/13 09:54:57;;;;;;;2.00;1.00;;;16.10;99.90;;;;;;4944753;28;20227;-81
2022/08/13 09:57:29;;;;;;;1.30;1.10;;;16.10;99.90;;;;;;4945321;28;20233;-80
2022/08/13 09:59:59;;;;;;;1.92;0.95;;;16.00;99.90;;;;;;4946452;29;20707;-81
2022/08/13 10:02:32;;;;;;;1.88;1.35;;;16.00;99.90;;;;;;4944652;29;20200;-81
2022/08/13 10:05:05;;;;;;;1.63;1.10;;;16.00;99.90;;;;;;4945953;28;20212;-79
2022/08/13 10:07:39;;;;;;;2.17;1.60;;;16.00;99.90;;;;;;4942202;28;20208;-78
2022/08/13 10:10:11;;;;;;;4.15;1.85;;;15.90;99.90;;;;;;4952981;28;20247;-79
2022/08/13 10:12:42;;;;;;;1.85;1.60;;;15.90;99.90;;;;;;4963199;28;20206;-79
2022/08/13 10:15:15;;;;;;;2.20;1.75;;;15.90;99.90;;;;;;4965208;28;20214;-79
2022/08/13 10:17:53;;;;;;;3.08;2.10;;;15.90;99.90;;;;;;4963874;28;20196;-82
2022/08/13 10:20:25;;;;;;;3.85;2.80;;;15.80;99.90;;;;;;4963090;28;20231;-80
2022/08/13 10:22:56;;;;;;;2.42;2.05;;;15.80;99.90;;;;;;4964561;28;20206;-80
2022/08/13 10:25:29;;;;;;;4.75;2.60;;;15.70;99.90;;;;;;4964180;28;20202;-80
2022/08/13 10:28:00;;;;;;;3.05;2.08;;;15.70;99.90;;;;;;4965113;28;20845;-81
2022/08/13 10:30:32;;;;;;;3.25;2.40;;;15.70;99.90;;;;;;4964298;28;20205;-79
2022/08/13 10:33:04;;;;;;;2.55;2.30;;;15.70;99.90;;;;;;4961029;28;20207;-80
2022/08/13 10:35:35;;;;;;;3.30;2.47;;;15.60;99.90;;;;;;4965144;28;20203;-79
2022/08/13 10:38:07;;;;;;;3.83;2.28;;;15.60;99.90;;;;;;4968144;28;20195;-80
2022/08/13 10:40:38;;;;;;;4.28;2.60;;;15.50;99.90;;;;;;4967032;28;20668;-80
2022/08/13 10:43:09;;;;;;;3.08;2.30;;;15.50;99.90;;;;;;4963828;28;20204;-79
2022/08/13 10:45:41;;;;;;;4.25;2.00;;;15.50;99.90;;;;;;4963495;28;20199;-78
2022/08/13 10:48:14;;;;;;;2.80;1.90;;;15.50;99.90;;;;;;4964952;28;20187;-80
2022/08/13 10:50:46;;;;;;;4.00;2.05;;;15.40;99.90;;;;;;4963115;28;20207;-79
2022/08/13 10:56:00;;;;;;;2.22;2.03;;;15.40;99.90;;;;;;4964083;28;20237;-80
2022/08/13 10:58:31;;;;;;;2.45;2.00;;;15.30;99.90;;;;;;4964545;28;20199;-79
2022/08/13 11:01:03;;;;;;;2.28;1.88;;;15.30;99.90;;;;;;4963809;28;20245;-79
2022/08/13 11:03:37;;;;;;;2.80;1.98;;;15.30;99.90;;;;;;4963250;28;20203;-80
2022/08/13 11:06:09;;;;;;;2.28;1.80;;;15.30;99.90;;;;;;4964101;28;20265;-79
2022/08/13 11:08:40;;;;;;;3.28;2.10;;;15.30;99.90;;;;;;4963769;28;20210;-79
2022/08/13 11:11:12;;;;;;;2.45;1.85;;;15.30;99.90;;;;;;4969868;28;20237;-79
2022/08/13 11:13:43;;;;;;;1.90;1.70;;;15.30;99.90;;;;;;4969607;28;20203;-79
2022/08/13 11:18:59;;;;;;;2.10;1.90;;;15.30;99.90;;;;;;4972955;28;20195;-80
2022/08/13 11:21:30;;;;;;;2.80;1.88;;;15.20;99.90;;;;;;4967448;28;20199;-80
2022/08/13 11:24:02;;;;;;;2.58;1.95;;;15.20;99.90;;;;;;4973081;28;20619;-83
2022/08/13 11:26:32;;;;;;;4.00;2.50;;;15.20;99.90;;;;;;4971647;28;20254;-80
2022/08/13 11:29:03;;;;;;;2.47;2.13;;;15.20;99.90;;;;;;4971588;28;20195;-79
2022/08/13 11:31:34;;;;;;;5.85;2.60;;;15.20;99.90;;;;;;4967041;28;20209;-79
2022/08/13 11:34:07;;;;;;;4.20;2.53;;;15.10;99.90;;;;;;4968236;28;20202;-79
2022/08/13 11:36:38;;;;;;;5.15;2.42;;;15.00;99.90;;;;;;4969876;28;20278;-79
2022/08/13 11:39:08;;;;;;;3.33;2.63;;;15.00;99.90;;;;;;4974532;28;20195;-80
2022/08/13 11:41:39;;;;;;;4.30;2.85;;;15.00;99.90;;;;;;4970891;28;20200;-80
2022/08/13 11:44:10;;;;;;;5.35;2.60;;;15.00;99.90;;;;;;4969441;28;20655;-80
2022/08/13 11:46:41;;;;;;;3.15;2.50;;;14.90;99.90;;;;;;4968176;28;20199;-79
2022/08/13 11:49:14;;;;;;;3.33;2.33;;;14.80;99.90;;;;;;4978237;28;20195;-78
2022/08/13 11:51:46;;;;;;;3.25;2.33;;;14.80;99.90;;;;;;4966565;28;20689;-79
2022/08/13 11:54:18;;;;;;;5.35;2.55;;;14.90;99.90;;;;;;4970108;28;20234;-79
2022/08/13 11:56:49;;;;;;;3.28;2.17;;;14.80;99.90;;;;;;4968190;28;20204;-79
2022/08/13 11:59:21;;;;;;;3.35;2.10;;;14.80;99.90;;;;;;4968362;28;20207;-81
2022/08/13 12:01:52;;;;;;;4.38;2.40;;;14.80;99.90;;;;;;4972501;28;20207;-80
2022/08/13 12:04:24;;;;;;;3.17;2.22;;;14.80;99.90;;;;;;4966556;28;20576;-81
2022/08/13 12:06:55;;;;;;;4.47;2.65;;;14.80;99.90;;;;;;4977406;28;20225;-80
2022/08/13 12:09:26;;;;;;;3.42;2.90;;;14.80;99.90;;;;;;4968722;28;20204;-80
2022/08/13 12:11:57;;;;;;;3.45;2.70;;;14.80;99.90;;;;;;4964019;28;20203;-82
2022/08/13 12:14:28;;;;;;;3.17;2.70;;;14.80;99.90;;;;;;4964055;28;20219;-81
2022/08/13 12:16:58;;;;;;;3.25;2.42;;;14.70;99.90;;;;;;4963735;28;20659;-81
2022/08/13 12:19:31;;;;;;;3.40;2.67;;;14.70;99.90;;;;;;4966566;28;20202;-80
2022/08/13 12:22:02;;;;;;;3.28;2.72;;;14.70;99.90;;;;;;4966900;28;20200;-82
2022/08/13 12:24:33;;;;;;;3.50;2.67;;;14.60;99.90;;;;;;4963037;28;20201;-81
2022/08/13 12:27:04;;;;;;;4.47;2.88;;;14.60;99.90;;;;;;4966803;28;20199;-81
2022/08/13 12:29:35;;;;;;;4.55;3.45;;;14.50;99.90;;;;;;4965433;28;20203;-82
2022/08/13 12:32:06;;;;;;;5.38;3.42;;;14.50;99.90;;;;;;4966511;28;20205;-81
2022/08/13 12:34:38;;;;;;;2.97;2.42;;;14.50;99.90;;;;;;4966355;28;20210;-82
2022/08/13 12:37:10;;;;;;;2.92;2.30;;;14.40;99.90;;;;;;4966544;28;20195;-82
2022/08/13 12:39:41;;;;;;;2.88;1.98;;;14.30;99.90;;;;;;4967961;28;20205;-80
2022/08/13 12:42:11;;;;;;;2.72;2.25;;;14.30;99.90;;;;;;4965562;28;20655;-81
2022/08/13 12:44:42;;;;;;;4.95;2.75;;;14.30;99.90;;;;;;4966533;28;20651;-82
2022/08/13 12:47:13;;;;;;;4.82;3.15;;;14.20;99.90;;;;;;4965945;28;20199;-82
2022/08/13 12:49:47;;;;;;;3.45;2.58;;;14.20;99.90;;;;;;4967065;28;20203;-81
2022/08/13 12:52:18;;;;;;;4.32;2.55;;;14.20;99.90;;;;;;4967638;28;20195;-81
2022/08/13 12:54:48;;;;;;;3.72;2.40;;;14.10;99.90;;;;;;4966500;28;20218;-81
2022/08/13 12:57:19;;;;;;;3.30;2.58;;;14.00;99.90;;;;;;4966945;28;20207;-80
2022/08/13 12:59:50;;;;;;;2.40;1.92;;;14.00;99.90;;;;;;4966457;28;20239;-79
2022/08/13 13:02:22;;;;;;;1.77;1.67;;;14.00;99.90;;;;;;4965723;28;20245;-79
2022/08/13 13:04:55;;;;;;;2.20;1.60;;;14.00;99.90;;;;;;4965466;28;20222;-78
2022/08/13 13:07:26;;;;;;;3.30;1.60;;;14.00;99.90;;;;;;4960651;28;20229;-78
2022/08/13 13:09:57;;;;;;;2.35;1.85;;;14.00;99.90;;;;;;4966317;28;20347;-78
2022/08/13 13:12:28;;;;;;;2.85;1.80;;;14.10;99.90;;;;;;4976626;28;20212;-78
2022/08/13 13:14:58;;;;;;;2.78;1.83;;;14.10;99.90;;;;;;4972523;28;20568;-77
2022/08/13 13:17:29;;;;;;;4.00;1.60;;;14.10;99.90;;;;;;4969891;28;20307;-78
2022/08/13 13:20:03;;;;;;;3.35;1.80;;;14.10;99.90;;;;;;4974779;28;20215;-78
2022/08/13 13:22:34;;;;;;;1.52;1.40;;;14.10;99.90;;;;;;4972816;28;20719;-79
2022/08/13 13:25:05;;;;;;;2.33;1.17;;;14.10;99.90;;;;;;4988815;28;20218;-78
2022/08/13 13:27:38;;;;;;;2.38;1.38;;;14.10;99.90;;;;;;5001272;28;20259;-78
2022/08/13 13:30:12;;;;;;;1.20;1.00;;;14.10;99.90;;;;;;4969972;28;20230;-79
2022/08/13 13:32:43;;;;;;;1.40;1.00;;;14.10;99.90;;;;;;4970848;28;21308;-79
2022/08/13 13:35:16;;;;;;;1.10;1.00;;;14.10;99.90;;;;;;4964555;28;20229;-79